Time;durP1;ratioP1;P1;durP2;ratioP2;P2;SDS_P1;SDS_P2;PMS_P1;PMS_P2;Temp;Humidity;BMP_temperature;BMP_pressure;BME280_temperature;BME280_humidity;BME280_pressure;Samples;Min_cycle;Max_cycle;Signal;HPM_P1;HPM_P2
2022/05/04 00:02:16;;;;;;;16.10;10.23;;;;;;;8.92;93.19;100007.94;5121007;28;20023;-68
2022/05/04 00:04:41;;;;;;;14.77;10.13;;;;;;;8.92;93.97;99985.97;5121716;28;20116;-68
2022/05/04 00:07:07;;;;;;;16.98;9.90;;;;;;;8.83;94.77;99989.50;5120664;28;20087;-68
2022/05/04 00:09:32;;;;;;;15.80;10.00;;;;;;;9.05;93.54;99983.84;5121688;28;20023;-68
2022/05/04 00:11:57;;;;;;;15.82;9.80;;;;;;;9.08;93.13;99980.06;5120216;28;20039;-68
2022/05/04 00:14:25;;;;;;;16.88;9.98;;;;;;;9.13;92.49;99976.00;5117845;28;20357;-68
2022/05/04 00:16:51;;;;;;;14.80;9.48;;;;;;;9.09;92.70;99974.66;5120981;28;20034;-68
2022/05/04 00:19:17;;;;;;;15.85;9.95;;;;;;;9.05;93.30;99977.72;5120301;28;20031;-68
2022/05/04 00:21:42;;;;;;;14.52;9.80;;;;;;;9.21;92.13;99977.91;5121296;28;20050;-68
2022/05/04 00:24:08;;;;;;;14.48;10.32;;;;;;;9.13;91.69;99973.38;5123895;28;20024;-68
2022/05/04 00:26:33;;;;;;;15.65;10.27;;;;;;;9.34;91.16;99980.22;5122009;28;20035;-68
2022/05/04 00:28:58;;;;;;;17.63;10.63;;;;;;;9.34;91.01;99967.81;5120375;28;20057;-68
2022/05/04 00:31:24;;;;;;;14.93;10.75;;;;;;;9.43;90.92;99969.59;5121343;28;20035;-68
2022/05/04 00:33:49;;;;;;;16.20;11.13;;;;;;;9.50;89.65;99972.50;5122049;28;20034;-68
2022/05/04 00:36:15;;;;;;;15.02;10.68;;;;;;;9.52;89.13;99971.34;5104562;28;20103;-68
2022/05/04 00:38:40;;;;;;;13.27;9.52;;;;;;;9.71;87.07;99974.84;5122272;28;20035;-68
2022/05/04 00:41:05;;;;;;;15.07;10.18;;;;;;;9.68;85.80;99972.50;5123898;28;20032;-68
2022/05/04 00:43:31;;;;;;;15.57;9.98;;;;;;;9.81;85.55;99986.19;5120313;28;20098;-68
2022/05/04 00:45:57;;;;;;;14.07;9.73;;;;;;;9.87;84.77;99982.94;5120509;28;20051;-68
2022/05/04 00:48:22;;;;;;;16.27;9.65;;;;;;;9.92;84.78;99992.06;5122833;28;20259;-68
2022/05/04 00:50:49;;;;;;;16.75;10.00;;;;;;;9.98;84.57;99989.78;5122367;28;20378;-68
2022/05/04 00:53:16;;;;;;;20.42;10.25;;;;;;;9.93;83.79;99983.16;5119364;28;20043;-68
2022/05/04 00:55:42;;;;;;;18.90;10.60;;;;;;;9.73;84.69;99981.63;5120691;28;20250;-68
2022/05/04 01:00:53;;;;;;;14.30;10.27;;;;;;;9.77;83.99;99982.16;5119747;28;20221;-68
2022/05/04 01:03:19;;;;;;;16.38;10.32;;;;;;;9.76;83.73;99980.50;5119869;28;20317;-68
2022/05/04 01:05:44;;;;;;;19.75;10.80;;;;;;;9.83;82.76;99984.22;5120317;28;20081;-68
2022/05/04 01:08:11;;;;;;;18.40;10.85;;;;;;;9.87;82.60;99986.41;5101067;28;20023;-68
2022/05/04 01:10:36;;;;;;;17.75;10.07;;;;;;;9.81;83.25;99984.34;5114680;28;20035;-68
2022/05/04 01:13:02;;;;;;;17.13;10.32;;;;;;;9.88;83.01;99989.88;5119293;28;20046;-68
2022/05/04 01:15:27;;;;;;;16.08;10.32;;;;;;;10.03;81.77;99987.53;5120360;28;20098;-68
2022/05/04 01:17:53;;;;;;;15.23;9.73;;;;;;;9.95;82.06;99985.63;5122351;28;20374;-68
2022/05/04 01:20:19;;;;;;;16.48;10.50;;;;;;;10.01;81.61;99984.19;5121573;28;20027;-68
2022/05/04 01:22:44;;;;;;;16.20;10.43;;;;;;;9.99;81.48;99988.81;5119332;28;20031;-68
2022/05/04 01:25:11;;;;;;;14.32;9.20;;;;;;;9.98;81.41;99989.78;5120509;28;20042;-68
2022/05/04 01:27:37;;;;;;;13.93;9.77;;;;;;;10.00;79.69;99995.75;5122387;28;20031;-68
2022/05/04 01:30:04;;;;;;;13.95;9.48;;;;;;;9.98;79.02;99990.63;5102682;28;20046;-68
2022/05/04 01:32:29;;;;;;;14.13;9.10;;;;;;;9.97;79.95;99993.44;5119577;28;20458;-68
2022/05/04 01:34:55;;;;;;;13.40;8.15;;;;;;;10.01;79.21;99992.97;5119804;28;20099;-68
2022/05/04 01:37:20;;;;;;;15.63;9.23;;;;;;;9.90;79.53;99996.69;5118888;28;20087;-68
2022/05/04 01:39:46;;;;;;;10.90;8.18;;;;;;;9.84;80.39;99989.34;5118856;28;20303;-68
2022/05/04 01:42:15;;;;;;;15.90;8.95;;;;;;;9.69;81.39;99998.78;5121983;28;20120;-68
2022/05/04 01:44:43;;;;;;;13.48;8.85;;;;;;;9.81;80.77;100000.22;5121569;28;20024;-68
2022/05/04 01:47:08;;;;;;;11.38;8.35;;;;;;;9.61;81.20;99993.41;5118324;28;20063;-69
2022/05/04 01:49:34;;;;;;;12.68;8.23;;;;;;;9.74;81.22;100004.47;5119020;28;20333;-68
2022/05/04 01:52:00;;;;;;;12.27;8.10;;;;;;;9.83;80.85;100000.06;5119547;28;20067;-68
2022/05/04 01:54:26;;;;;;;11.43;8.35;;;;;;;9.68;80.94;100002.41;5118724;28;20027;-68
2022/05/04 01:56:52;;;;;;;17.65;8.55;;;;;;;9.78;80.72;99992.59;5120247;28;20363;-69
2022/05/04 01:59:18;;;;;;;16.10;8.27;;;;;;;9.74;81.16;100004.47;5119878;28;20037;-68
2022/05/04 02:01:43;;;;;;;13.65;7.93;;;;;;;9.85;80.00;99987.53;5119749;28;20035;-68
2022/05/04 02:04:09;;;;;;;12.25;8.15;;;;;;;9.67;80.84;99986.69;5119412;28;20032;-68
2022/05/04 02:06:38;;;;;;;12.57;8.18;;;;;;;9.66;80.72;99993.81;5119361;28;20321;-68
2022/05/04 02:09:05;;;;;;;15.77;8.82;;;;;;;9.67;80.75;100002.56;5118792;28;20031;-68
2022/05/04 02:11:32;;;;;;;13.50;8.43;;;;;;;9.69;80.98;99997.97;5118640;28;20036;-68
2022/05/04 02:14:00;;;;;;;13.38;8.68;;;;;;;9.67;80.85;99995.47;5121431;28;20263;-68
2022/05/04 02:16:26;;;;;;;12.52;8.63;;;;;;;9.54;81.62;99993.19;5121358;28;20044;-69
2022/05/04 02:18:52;;;;;;;14.88;8.75;;;;;;;9.61;81.43;99993.41;5120283;28;20039;-68
2022/05/04 02:21:17;;;;;;;13.98;8.10;;;;;;;9.63;80.62;99980.88;5120424;28;20050;-68
2022/05/04 02:23:43;;;;;;;19.42;9.82;;;;;;;9.79;79.99;99991.63;5118389;28;20186;-68
2022/05/04 02:26:09;;;;;;;13.50;8.23;;;;;;;9.51;80.88;99997.94;5119476;28;20028;-68
2022/05/04 02:28:34;;;;;;;12.30;7.43;;;;;;;9.48;81.03;99988.50;5118646;28;20039;-68
2022/05/04 02:31:00;;;;;;;12.90;8.32;;;;;;;9.58;81.03;99991.06;5102854;28;20470;-68
2022/05/04 02:33:26;;;;;;;14.43;8.40;;;;;;;9.66;80.02;99995.63;5121268;28;20019;-67
2022/05/04 02:38:35;;;;;;;22.02;10.10;;;;;;;9.31;81.43;99996.38;5119223;28;20116;-69
2022/05/04 02:41:01;;;;;;;17.60;8.95;;;;;;;9.18;81.72;99992.25;5120579;28;20056;-68
2022/05/04 02:43:28;;;;;;;19.52;9.55;;;;;;;8.95;83.75;99999.72;5121006;28;20204;-68
2022/05/04 02:45:54;;;;;;;17.48;9.73;;;;;;;9.14;83.65;100001.44;5118807;28;20059;-68
2022/05/04 02:48:19;;;;;;;15.23;9.13;;;;;;;9.31;81.89;100013.06;5118079;28;20348;-68
2022/05/04 02:50:45;;;;;;;17.40;8.25;;;;;;;9.38;81.47;100005.41;5121253;28;20102;-68
2022/05/04 02:53:10;;;;;;;13.48;9.50;;;;;;;9.43;81.00;100011.91;5120113;28;20228;-68
2022/05/04 02:55:35;;;;;;;17.08;8.52;;;;;;;9.02;81.56;100015.00;5119026;28;20331;-68
2022/05/04 02:58:01;;;;;;;22.42;9.32;;;;;;;9.03;82.57;100014.03;5123319;28;20047;-68
2022/05/04 03:00:27;;;;;;;15.20;9.38;;;;;;;8.98;82.58;100009.19;5123783;28;20111;-68
2022/05/04 03:02:54;;;;;;;13.85;9.07;;;;;;;9.22;81.27;100011.28;5122631;28;20330;-68
2022/05/04 03:05:20;;;;;;;14.98;8.77;;;;;;;9.13;81.74;100010.34;5124897;28;20035;-68
2022/05/04 03:07:46;;;;;;;15.27;9.23;;;;;;;9.18;81.75;99997.53;5124644;28;20020;-68
2022/05/04 03:10:13;;;;;;;16.67;8.90;;;;;;;9.17;81.95;100008.25;5122567;28;20094;-68
2022/05/04 03:12:39;;;;;;;16.83;8.75;;;;;;;9.18;81.38;99992.25;5121752;28;20034;-68
2022/05/04 03:15:05;;;;;;;13.00;8.45;;;;;;;9.12;81.01;99971.72;5122735;28;20047;-68
2022/05/04 03:17:31;;;;;;;12.23;8.48;;;;;;;9.35;81.26;100008.31;5121577;28;20553;-68
2022/05/04 03:19:58;;;;;;;22.52;9.35;;;;;;;9.25;81.39;100011.81;5122339;28;20107;-69
2022/05/04 03:22:25;;;;;;;17.02;8.38;;;;;;;8.96;81.98;100008.47;5121991;28;20036;-68
2022/05/04 03:24:51;;;;;;;12.40;8.32;;;;;;;8.89;82.72;100018.78;5120384;28;20031;-68
2022/05/04 03:27:17;;;;;;;11.95;8.20;;;;;;;9.06;81.82;100013.72;5121659;28;20050;-68
2022/05/04 03:29:43;;;;;;;15.63;7.90;;;;;;;9.08;81.56;100017.06;5120661;28;20066;-68
2022/05/04 03:32:09;;;;;;;14.52;8.05;;;;;;;8.96;82.02;100014.59;5120718;28;20031;-68
2022/05/04 03:34:34;;;;;;;13.23;8.63;;;;;;;9.07;81.79;100020.69;5121523;27;20337;-69
2022/05/04 03:37:00;;;;;;;13.93;7.30;;;;;;;9.14;80.92;100017.31;5119961;28;20036;-68
2022/05/04 03:39:26;;;;;;;11.30;8.02;;;;;;;9.13;80.18;100012.16;5120309;28;20184;-68
2022/05/04 03:41:52;;;;;;;19.33;8.20;;;;;;;9.36;79.71;100026.66;5120887;28;20065;-68
2022/05/04 03:44:17;;;;;;;14.18;8.82;;;;;;;9.49;79.28;100026.34;5120149;27;20217;-68
2022/05/04 03:46:48;;;;;;;13.05;8.43;;;;;;;9.53;79.08;100031.19;5121040;28;20041;-68
2022/05/04 03:49:16;;;;;;;17.60;8.45;;;;;;;9.64;78.22;100032.78;5120790;28;20402;-68
2022/05/04 03:51:42;;;;;;;16.80;8.52;;;;;;;9.77;78.42;100045.63;5101555;28;20264;-68
2022/05/04 03:54:07;;;;;;;17.55;9.45;;;;;;;9.71;78.44;100046.22;5119773;28;20039;-68
2022/05/04 03:56:34;;;;;;;20.42;9.93;;;;;;;9.90;76.94;100046.09;5120864;28;20035;-68
2022/05/04 03:59:00;;;;;;;18.30;9.13;;;;;;;9.93;76.65;100051.09;5119780;28;20088;-68
2022/05/04 04:01:26;;;;;;;16.08;8.80;;;;;;;10.07;75.59;100062.97;5102295;28;20187;-68
2022/05/04 04:03:51;;;;;;;13.40;7.68;;;;;;;10.12;74.93;100060.69;5120012;28;20102;-68
2022/05/04 04:06:17;;;;;;;17.10;7.97;;;;;;;9.93;74.91;100057.22;5119694;28;20038;-68
2022/05/04 04:08:42;;;;;;;14.25;7.70;;;;;;;9.86;75.65;100056.16;5120003;28;20042;-68
2022/05/04 04:11:08;;;;;;;16.50;7.80;;;;;;;9.78;76.63;100056.06;5119639;28;20024;-68
2022/05/04 04:13:34;;;;;;;15.68;7.97;;;;;;;9.83;75.78;100051.16;5119839;28;20137;-68
2022/05/04 04:15:59;;;;;;;16.20;8.13;;;;;;;9.81;76.00;100063.69;5120801;28;20050;-68
2022/05/04 04:18:26;;;;;;;14.65;7.70;;;;;;;9.80;76.10;100067.31;5119525;28;20043;-68
2022/05/04 04:23:37;;;;;;;18.33;7.68;;;;;;;9.77;77.07;100069.44;5118624;28;20081;-68
2022/05/04 04:26:05;;;;;;;13.32;7.93;;;;;;;9.79;77.03;100072.75;5120426;27;20325;-68
2022/05/04 04:28:31;;;;;;;14.73;8.32;;;;;;;9.83;77.71;100067.03;5120596;28;20553;-68
2022/05/04 04:30:57;;;;;;;14.05;8.20;;;;;;;9.91;78.66;100066.28;5100564;28;20068;-68
2022/05/04 04:33:26;;;;;;;22.85;9.07;;;;;;;10.07;77.79;100055.84;5120339;28;20252;-68
2022/05/04 04:35:55;;;;;;;18.08;9.55;;;;;;;10.28;76.57;100052.09;5118899;28;20074;-68
2022/05/04 04:38:20;;;;;;;16.23;8.82;;;;;;;10.45;76.60;100057.41;5118202;28;20039;-68
2022/05/04 04:40:46;;;;;;;26.50;10.40;;;;;;;10.57;76.63;100044.75;5119317;28;20039;-68
2022/05/04 04:43:12;;;;;;;20.92;11.25;;;;;;;10.94;75.88;100048.97;5119180;28;20043;-68
2022/05/04 04:45:38;;;;;;;23.75;12.00;;;;;;;11.37;74.15;100063.91;5119231;28;20035;-68
2022/05/04 04:48:03;;;;;;;20.52;10.30;;;;;;;11.57;73.44;100062.69;5119866;28;20038;-68
2022/05/04 04:50:29;;;;;;;16.00;9.20;;;;;;;11.99;72.03;100073.28;5119113;28;20333;-68
2022/05/04 04:52:54;;;;;;;13.32;8.20;;;;;;;12.36;69.41;100067.50;5119185;28;20266;-68
2022/05/04 04:55:20;;;;;;;17.67;9.60;;;;;;;12.72;67.92;100062.72;5100929;28;20362;-69
2022/05/04 04:57:45;;;;;;;14.50;8.57;;;;;;;12.88;67.67;100063.69;5096445;28;20067;-69
2022/05/04 05:00:11;;;;;;;14.43;7.20;;;;;;;12.84;66.94;100057.06;5098657;28;20024;-69
2022/05/04 05:02:37;;;;;;;11.43;7.40;;;;;;;12.78;66.81;100058.56;5099138;28;20035;-69
2022/05/04 05:05:03;;;;;;;14.32;7.63;;;;;;;12.63;68.21;100062.88;5098148;28;20503;-68
2022/05/04 05:07:28;;;;;;;15.50;7.15;;;;;;;12.48;68.61;100062.69;5098490;28;20309;-68
2022/05/04 05:09:54;;;;;;;12.40;7.43;;;;;;;12.31;68.71;100050.41;5097644;28;20032;-68
2022/05/04 05:12:21;;;;;;;12.70;7.40;;;;;;;12.68;68.99;100082.66;5098053;28;20020;-69
2022/05/04 05:17:32;;;;;;;20.10;8.93;;;;;;;13.28;66.70;100081.38;5097752;28;20038;-69
2022/05/04 05:19:57;;;;;;;16.45;8.05;;;;;;;13.58;65.04;100080.66;5098756;28;20057;-69
2022/05/04 05:22:23;;;;;;;14.52;7.47;;;;;;;13.66;64.35;100079.78;5098116;28;20031;-68
2022/05/04 05:24:48;;;;;;;12.57;6.53;;;;;;;14.10;63.75;100072.03;5098291;28;20166;-69
2022/05/04 05:27:15;;;;;;;12.30;6.50;;;;;;;14.71;61.14;100064.94;5098755;28;20221;-69
2022/05/04 05:29:40;;;;;;;9.65;6.03;;;;;;;15.21;59.55;100082.09;5098030;28;20057;-69
2022/05/04 05:32:06;;;;;;;8.25;6.15;;;;;;;15.12;59.36;100089.38;5097686;28;20325;-69
2022/05/04 05:34:33;;;;;;;10.27;6.43;;;;;;;14.81;61.22;100062.03;5098808;28;20069;-69
2022/05/04 05:36:59;;;;;;;7.53;5.43;;;;;;;14.75;61.78;100097.41;5097148;28;20342;-69
2022/05/04 05:39:25;;;;;;;9.48;6.20;;;;;;;14.49;62.26;100093.25;5098864;28;20038;-69
2022/05/04 05:41:50;;;;;;;7.78;5.70;;;;;;;14.52;62.40;100092.91;5097380;28;20028;-69
2022/05/04 05:44:16;;;;;;;11.55;5.20;;;;;;;14.16;63.00;100094.47;5097596;28;20038;-69
2022/05/04 05:46:42;;;;;;;8.65;5.30;;;;;;;14.02;64.83;100088.88;5097035;28;20027;-69
2022/05/04 05:49:07;;;;;;;9.18;7.28;;;;;;;13.82;65.85;100087.69;5097616;28;20051;-69
2022/05/04 05:51:32;;;;;;;12.80;6.63;;;;;;;13.83;65.57;100078.69;5097911;28;20598;-69
2022/05/04 05:53:58;;;;;;;8.55;6.65;;;;;;;13.87;65.93;100080.00;5098609;28;20028;-69
2022/05/04 05:56:23;;;;;;;11.85;7.40;;;;;;;14.04;64.56;100070.06;5097279;28;20036;-69
2022/05/04 05:58:48;;;;;;;11.65;7.03;;;;;;;14.26;65.56;100073.75;5113633;28;20106;-68
2022/05/04 06:01:15;;;;;;;9.48;6.53;;;;;;;14.27;65.50;100084.22;5118360;28;20043;-69
2022/05/04 06:03:41;;;;;;;14.85;9.82;;;;;;;13.63;67.55;100085.44;5117799;28;20020;-69
2022/05/04 06:06:06;;;;;;;9.32;7.13;;;;;;;13.75;68.33;100084.06;5099020;28;20243;-69
2022/05/04 06:08:31;;;;;;;11.18;7.15;;;;;;;14.04;68.03;100078.91;5118649;28;20058;-69
2022/05/04 06:10:57;;;;;;;13.00;7.18;;;;;;;14.23;66.80;100077.59;5117591;28;20202;-69
2022/05/04 06:13:22;;;;;;;11.88;7.05;;;;;;;14.04;68.27;100072.75;5118617;28;20343;-69
2022/05/04 06:15:48;;;;;;;9.68;5.65;;;;;;;14.42;67.20;100067.47;5117868;28;20050;-69
2022/05/04 06:18:13;;;;;;;9.38;6.65;;;;;;;15.04;65.05;100062.78;5117517;28;20364;-69
2022/05/04 06:20:39;;;;;;;9.80;5.63;;;;;;;15.22;63.71;100065.09;5118631;28;20226;-69
2022/05/04 06:23:05;;;;;;;8.63;5.18;;;;;;;15.05;62.75;100069.78;5117497;28;20325;-69
2022/05/04 06:25:30;;;;;;;8.23;5.78;;;;;;;14.53;63.30;100073.22;5117823;28;20023;-69
2022/05/04 06:27:56;;;;;;;6.85;4.95;;;;;;;14.36;65.12;100072.50;5118549;28;20039;-69
2022/05/04 06:35:49;;;;;;;5.88;4.50;;;;;;;14.90;64.86;100072.41;5122107;28;20042;-69
2022/05/04 06:38:14;;;;;;;5.93;4.43;;;;;;;15.74;62.63;100078.34;5121717;28;20160;-69
2022/05/04 06:40:40;;;;;;;7.03;4.85;;;;;;;16.31;60.26;100074.00;5122539;28;20112;-68
2022/05/04 06:43:05;;;;;;;7.65;3.90;;;;;;;16.35;58.92;100075.28;5121377;28;20019;-68
2022/05/04 06:45:31;;;;;;;10.95;4.18;;;;;;;16.27;59.22;100070.91;5121296;28;20096;-69
2022/05/04 06:47:56;;;;;;;8.27;4.30;;;;;;;16.09;59.34;100071.34;5122375;28;20929;-69
2022/05/04 06:50:22;;;;;;;6.72;4.32;;;;;;;15.69;62.91;100064.72;5121172;28;20036;-69
2022/05/04 06:52:47;;;;;;;6.15;4.15;;;;;;;15.54;62.58;100075.38;5121468;27;20353;-69
2022/05/04 06:55:13;;;;;;;9.02;5.88;;;;;;;15.17;63.45;100068.31;5122196;27;20347;-69
2022/05/04 06:57:39;;;;;;;10.38;4.40;;;;;;;15.12;64.15;100078.69;5120541;28;20050;-69
2022/05/04 07:00:06;;;;;;;5.88;4.85;;;;;;;15.12;63.89;100069.88;5120889;28;20031;-69
2022/05/04 07:02:33;;;;;;;6.95;4.28;;;;;;;15.23;62.76;100069.41;5121864;28;20309;-69
2022/05/04 07:05:03;;;;;;;7.03;4.45;;;;;;;15.45;62.10;100064.97;5121014;28;20055;-69
2022/05/04 07:07:29;;;;;;;7.00;4.38;;;;;;;16.35;60.24;100060.06;5121074;27;20044;-68
2022/05/04 07:09:54;;;;;;;5.28;3.85;;;;;;;17.14;56.68;100057.22;5121989;27;20035;-68
2022/05/04 07:12:20;;;;;;;9.75;3.70;;;;;;;17.13;55.47;100061.75;5120689;27;20030;-69
2022/05/04 07:14:46;;;;;;;11.25;3.50;;;;;;;16.63;56.09;100053.94;5120871;28;20028;-69
2022/05/04 07:17:12;;;;;;;5.35;3.40;;;;;;;16.39;57.63;100050.66;5121815;28;20271;-69
2022/05/04 07:19:37;;;;;;;5.55;3.53;;;;;;;17.07;57.42;100051.84;5102984;27;20046;-68
2022/05/04 07:22:03;;;;;;;4.63;3.63;;;;;;;17.81;54.65;100045.84;5119410;27;20023;-69
2022/05/04 07:24:29;;;;;;;8.23;4.00;;;;;;;18.47;52.40;100060.19;5121789;28;20094;-69
2022/05/04 07:26:54;;;;;;;6.93;4.78;;;;;;;18.41;52.16;100060.19;5120774;28;20088;-67
2022/05/04 07:29:20;;;;;;;5.72;3.75;;;;;;;19.03;50.43;100053.59;5121343;28;20046;-67
2022/05/04 07:31:45;;;;;;;6.55;5.00;;;;;;;18.94;48.91;100054.88;5121389;28;20035;-69
2022/05/04 07:34:14;;;;;;;7.32;4.60;;;;;;;18.68;49.73;100051.16;5119246;28;20027;-67
2022/05/04 07:36:39;;;;;;;8.43;5.03;;;;;;;18.70;49.77;100037.53;5120323;28;20039;-69
2022/05/04 07:39:05;;;;;;;9.60;5.13;;;;;;;19.35;47.75;100050.00;5121238;27;20051;-69
2022/05/04 07:44:14;;;;;;;6.57;3.30;;;;;;;18.92;47.93;100016.69;5118898;28;20038;-69
2022/05/04 07:46:41;;;;;;;4.05;3.25;;;;;;;18.33;49.71;100058.53;5120894;27;20031;-67
2022/05/04 07:49:07;;;;;;;7.57;4.60;;;;;;;18.24;52.32;100059.75;5120123;27;20031;-69
2022/05/04 07:51:32;;;;;;;7.45;4.50;;;;;;;18.29;50.58;100057.28;5120247;28;20040;-68
2022/05/04 07:53:58;;;;;;;4.45;3.78;;;;;;;17.81;51.94;100064.59;5120951;28;20051;-68
2022/05/04 07:56:23;;;;;;;5.90;4.30;;;;;;;17.45;53.17;100072.84;5119849;28;20035;-66
2022/05/04 07:58:49;;;;;;;9.30;3.83;;;;;;;16.86;55.68;100074.13;5120924;28;20076;-66
2022/05/04 08:04:16;;;;;;;11.93;3.60;;;;;;;16.80;56.94;100060.72;5121125;28;20035;-69
2022/05/04 08:06:41;;;;;;;5.03;3.40;;;;;;;16.93;54.28;100055.47;5120196;28;20039;-67
2022/05/04 08:09:07;;;;;;;14.63;3.47;;;;;;;17.12;54.07;100061.97;5122260;28;20630;-66
2022/05/04 08:11:32;;;;;;;7.80;5.30;;;;;;;17.06;55.09;100060.06;5121952;27;20019;-69
2022/05/04 08:13:58;;;;;;;6.32;3.40;;;;;;;17.87;53.37;100053.09;5122225;28;20289;-69
2022/05/04 08:16:23;;;;;;;5.40;3.30;;;;;;;18.83;51.52;100050.13;5122554;28;20034;-67
2022/05/04 08:18:49;;;;;;;7.95;3.00;;;;;;;19.44;48.83;100053.28;5121658;28;20177;-73
2022/05/04 08:21:14;;;;;;;8.13;4.43;;;;;;;19.52;48.28;100054.91;5104673;28;20024;-70
2022/05/04 08:23:40;;;;;;;6.05;3.00;;;;;;;19.44;47.04;100055.97;5101766;28;20028;-70
2022/05/04 08:26:06;;;;;;;5.07;2.60;;;;;;;19.49;46.91;100066.09;5123151;28;20031;-70
2022/05/04 08:28:32;;;;;;;7.07;3.15;;;;;;;19.81;46.27;100056.28;5123742;28;20043;-70
2022/05/04 08:30:58;;;;;;;6.43;2.83;;;;;;;19.44;47.30;100055.97;5123224;28;20039;-70
2022/05/04 08:33:23;;;;;;;4.97;2.42;;;;;;;19.03;46.56;100051.75;5123413;28;20095;-70
2022/05/04 08:35:49;;;;;;;4.03;2.97;;;;;;;19.64;45.43;100056.75;5122653;28;20090;-73
2022/05/04 08:38:15;;;;;;;4.68;2.70;;;;;;;20.22;45.07;100048.59;5122955;28;20042;-70
2022/05/04 08:40:41;;;;;;;6.97;3.78;;;;;;;20.46;46.46;100043.50;5123021;28;20027;-70
2022/05/04 08:43:07;;;;;;;10.50;4.00;;;;;;;20.04;47.61;100035.06;5123282;28;20049;-70
2022/05/04 08:45:37;;;;;;;10.57;3.97;;;;;;;20.07;47.44;100051.59;5104909;28;20098;-70
2022/05/04 08:48:08;;;;;;;8.55;3.30;;;;;;;20.02;45.21;100047.91;5123014;28;20078;-70
2022/05/04 08:50:35;;;;;;;3.80;3.40;;;;;;;20.46;44.98;100041.63;5123005;28;20115;-72
2022/05/04 08:53:02;;;;;;;11.38;6.88;;;;;;;20.74;43.81;100046.56;5123217;28;20277;-71
2022/05/04 08:55:28;;;;;;;5.63;2.53;;;;;;;20.51;42.26;100030.22;5122309;28;20330;-70
2022/05/04 08:57:56;;;;;;;3.33;2.38;;;;;;;21.16;43.38;100030.66;5104627;28;20185;-70
2022/05/04 09:00:23;;;;;;;4.25;2.55;;;;;;;21.28;44.04;100031.56;5123122;28;20039;-70
2022/05/04 09:02:49;;;;;;;4.70;2.92;;;;;;;21.26;43.15;100023.72;5104137;28;20198;-70
2022/05/04 09:05:18;;;;;;;6.38;2.40;;;;;;;21.69;40.66;100030.84;5122959;28;20042;-70
2022/05/04 09:07:46;;;;;;;7.18;2.67;;;;;;;21.88;41.29;100026.28;5122811;28;20031;-70
2022/05/04 09:10:22;;;;;;;5.75;2.30;;;;;;;21.78;42.28;100021.41;5122434;28;20037;-70
2022/05/04 09:12:51;;;;;;;5.10;2.30;;;;;;;21.54;42.08;100023.16;5122729;28;20106;-70
2022/05/04 09:15:27;;;;;;;7.22;2.85;;;;;;;21.47;41.04;100014.34;5122666;28;20036;-70
2022/05/04 09:17:56;;;;;;;4.88;2.33;;;;;;;21.76;41.40;100015.41;5122206;28;20051;-70
2022/05/04 09:20:45;;;;;;;2.72;2.47;;;;;;;21.92;43.26;100008.59;5122760;28;20043;-70
2022/05/04 09:23:12;;;;;;;5.63;3.00;;;;;;;21.92;42.57;100004.03;5103760;28;20024;-70
2022/05/04 09:25:37;;;;;;;5.80;2.45;;;;;;;22.10;42.68;100002.34;5122100;27;20072;-70
2022/05/04 09:28:07;;;;;;;3.50;2.33;;;;;;;22.14;39.58;100000.81;5122894;27;20031;-70
2022/05/04 09:30:33;;;;;;;7.68;1.70;;;;;;;21.98;38.67;100002.28;5122357;28;20112;-70
2022/05/04 09:32:58;;;;;;;5.00;2.25;;;;;;;21.85;39.26;100002.47;5122085;28;20331;-70
2022/05/04 09:35:24;;;;;;;4.72;2.33;;;;;;;21.78;37.60;99997.16;5121946;27;20031;-70
2022/05/04 09:46:08;;;;;;;;;;;;;;;21.26;37.81;99986.03;5122000;28;20035;-70
2022/05/04 09:48:34;;;;;;;6.07;2.15;;;;;;;21.54;39.59;99985.44;5121917;28;19915;-70
2022/05/04 09:51:06;;;;;;;3.47;1.70;;;;;;;21.58;36.70;99989.34;5120888;28;20089;-70
2022/05/04 09:53:32;;;;;;;3.58;1.75;;;;;;;21.39;36.65;99986.91;5121696;28;20233;-70
2022/05/04 09:55:58;;;;;;;4.05;1.63;;;;;;;21.49;36.09;99984.50;5120696;28;20090;-70
2022/05/04 09:58:28;;;;;;;3.53;1.60;;;;;;;21.61;34.74;99983.50;5121962;28;20043;-70
2022/05/04 10:00:55;;;;;;;3.58;1.77;;;;;;;21.42;37.73;99972.97;5120862;28;20027;-70
2022/05/04 10:03:21;;;;;;;8.07;1.98;;;;;;;21.46;35.75;99966.91;5121576;28;20062;-70
2022/05/04 10:05:49;;;;;;;5.88;1.63;;;;;;;21.52;36.12;99984.84;5116865;28;20237;-70
2022/05/04 10:08:14;;;;;;;4.60;1.60;;;;;;;21.51;35.13;99974.31;5119641;28;20088;-70
2022/05/04 10:10:40;;;;;;;6.05;2.05;;;;;;;21.42;33.43;99979.19;5121730;28;20329;-71
2022/05/04 10:13:08;;;;;;;7.53;1.98;;;;;;;21.47;35.07;99976.63;5122179;28;20220;-70
2022/05/04 10:15:36;;;;;;;2.10;1.40;;;;;;;21.54;33.99;99979.25;5121566;28;20287;-70
2022/05/04 10:18:18;;;;;;;4.95;1.77;;;;;;;21.53;32.77;99966.81;5121465;28;20225;-70
2022/05/04 10:20:49;;;;;;;3.22;2.70;;;;;;;21.24;33.87;99974.66;5121117;28;20154;-70
2022/05/04 10:23:24;;;;;;;2.80;1.63;;;;;;;21.18;34.58;99963.94;5121879;28;20035;-70
2022/05/04 10:25:50;;;;;;;3.63;1.65;;;;;;;21.32;34.31;99963.56;5103146;28;20047;-70
2022/05/04 10:28:17;;;;;;;2.92;1.75;;;;;;;21.29;33.68;99947.03;5103653;28;20292;-70
2022/05/04 10:31:01;;;;;;;5.75;2.72;;;;;;;21.03;33.28;99954.38;5121755;28;20040;-70
2022/05/04 10:33:34;;;;;;;4.80;2.15;;;;;;;21.16;33.56;99955.25;5121488;28;20329;-70
2022/05/04 10:36:20;;;;;;;3.22;1.80;;;;;;;21.29;34.90;99953.25;5121655;28;20069;-70
2022/05/04 10:38:51;;;;;;;4.13;1.95;;;;;;;21.37;33.81;99951.28;5120020;28;20039;-70
2022/05/04 10:41:33;;;;;;;6.43;2.03;;;;;;;21.51;34.81;99940.09;5121046;28;20149;-70
2022/05/04 10:43:59;;;;;;;6.43;2.88;;;;;;;21.44;33.46;99936.69;5121542;28;20036;-71
2022/05/04 10:46:24;;;;;;;3.75;1.80;;;;;;;21.44;34.07;99935.84;5121275;28;20038;-70
2022/05/04 10:49:05;;;;;;;4.13;2.13;;;;;;;21.48;32.81;99939.75;5121427;28;20027;-70
2022/05/04 10:51:38;;;;;;;4.20;1.77;;;;;;;21.46;31.55;99931.88;5121395;28;20063;-70
2022/05/04 10:54:11;;;;;;;7.65;2.13;;;;;;;21.47;33.13;99928.16;5121177;28;20038;-70
2022/05/04 10:56:42;;;;;;;3.22;1.75;;;;;;;21.56;34.28;99934.03;5121446;28;20039;-70
2022/05/04 10:59:07;;;;;;;4.18;2.45;;;;;;;21.58;32.38;99924.66;5120499;28;20040;-70
2022/05/04 11:01:36;;;;;;;4.38;1.77;;;;;;;21.53;32.00;99929.09;5121272;28;20957;-70
2022/05/04 11:04:11;;;;;;;4.78;1.90;;;;;;;21.67;34.29;99925.97;5120363;28;20351;-70
2022/05/04 11:07:14;;;;;;;6.25;2.10;;;;;;;21.64;34.21;99921.06;5120439;28;20039;-70
2022/05/04 11:09:46;;;;;;;3.92;1.80;;;;;;;21.39;34.35;99915.00;5038483;28;20270;-70
2022/05/04 11:12:12;;;;;;;5.47;2.22;;;;;;;21.47;34.71;99906.59;5037368;28;20064;-70
2022/05/04 11:14:39;;;;;;;4.40;1.92;;;;;;;21.66;32.78;99910.88;5080615;28;20079;-70
2022/05/04 11:17:14;;;;;;;5.60;2.13;;;;;;;21.70;33.02;99903.16;5121125;28;20058;-70
2022/05/04 11:19:45;;;;;;;7.30;1.95;;;;;;;21.53;32.68;99907.53;5124775;28;20234;-70
2022/05/04 11:22:12;;;;;;;2.63;1.90;;;;;;;21.63;31.31;99899.72;5124890;28;20086;-70
2022/05/04 11:24:38;;;;;;;3.55;1.77;;;;;;;21.42;32.58;99897.56;5124801;27;20134;-70
2022/05/04 11:27:04;;;;;;;7.30;2.40;;;;;;;21.50;34.50;99899.94;5124661;27;20321;-70
2022/05/04 11:29:30;;;;;;;4.90;1.88;;;;;;;21.67;33.11;99899.03;5124829;28;20031;-70
2022/05/04 11:32:01;;;;;;;3.90;1.92;;;;;;;21.78;32.14;99891.22;5124491;28;20039;-70
2022/05/04 11:34:28;;;;;;;5.78;2.35;;;;;;;21.68;32.18;99895.28;5124221;28;20093;-70
2022/05/04 11:36:56;;;;;;;4.38;2.20;;;;;;;21.69;31.28;99885.31;5106088;28;20019;-70
2022/05/04 11:39:24;;;;;;;4.82;2.20;;;;;;;21.58;30.08;99894.22;5124550;28;20019;-70
2022/05/04 11:41:51;;;;;;;4.25;2.15;;;;;;;21.21;31.20;99886.19;5124114;28;20233;-70
2022/05/04 11:44:21;;;;;;;2.20;1.77;;;;;;;21.25;32.94;99883.91;5121352;28;20026;-70
2022/05/04 11:46:51;;;;;;;5.20;2.28;;;;;;;21.39;32.33;99882.66;5101781;28;20098;-70
2022/05/04 11:49:19;;;;;;;4.75;2.30;;;;;;;21.49;32.07;99882.13;5121400;28;20077;-70
2022/05/04 11:51:44;;;;;;;2.85;2.42;;;;;;;21.54;30.32;99880.38;5120442;28;20231;-70
2022/05/04 11:54:10;;;;;;;6.88;2.30;;;;;;;21.48;31.91;99875.09;5121455;28;20026;-70
2022/05/04 11:56:36;;;;;;;3.20;2.05;;;;;;;21.48;31.10;99865.13;5120400;28;20240;-70